sensor_id;sensor_type;location;lat;lon;timestamp;P1;durP1;ratioP1;P2;durP2;ratioP2
28946;SDS011;16052;50.930;5.326;2023-02-28T00:01:20;0.20;;;0.20;;
28946;SDS011;16052;50.930;5.326;2023-02-28T00:03:46;0.20;;;0.20;;
28946;SDS011;16052;50.930;5.326;2023-02-28T00:06:12;0.20;;;0.20;;
28946;SDS011;16052;50.930;5.326;2023-02-28T00:08:38;0.20;;;0.20;;
28946;SDS011;16052;50.930;5.326;2023-02-28T00:11:05;0.25;;;0.25;;
28946;SDS011;16052;50.930;5.326;2023-02-28T00:13:33;0.20;;;0.20;;
28946;SDS011;16052;50.930;5.326;2023-02-28T00:16:00;0.30;;;0.30;;
28946;SDS011;16052;50.930;5.326;2023-02-28T00:18:31;0.25;;;0.25;;
28946;SDS011;16052;50.930;5.326;2023-02-28T00:20:57;0.28;;;0.28;;
28946;SDS011;16052;50.930;5.326;2023-02-28T00:23:23;0.20;;;0.20;;
28946;SDS011;16052;50.930;5.326;2023-02-28T00:25:49;0.20;;;0.20;;
28946;SDS011;16052;50.930;5.326;2023-02-28T00:28:16;0.20;;;0.20;;
28946;SDS011;16052;50.930;5.326;2023-02-28T00:30:42;0.20;;;0.20;;
28946;SDS011;16052;50.930;5.326;2023-02-28T00:33:07;0.20;;;0.20;;
28946;SDS011;16052;50.930;5.326;2023-02-28T00:35:33;0.30;;;0.30;;
28946;SDS011;16052;50.930;5.326;2023-02-28T00:37:59;0.15;;;0.15;;
28946;SDS011;16052;50.930;5.326;2023-02-28T00:40:24;0.20;;;0.20;;
28946;SDS011;16052;50.930;5.326;2023-02-28T00:42:50;0.20;;;0.20;;
28946;SDS011;16052;50.930;5.326;2023-02-28T00:45:16;0.20;;;0.20;;
28946;SDS011;16052;50.930;5.326;2023-02-28T00:47:41;0.20;;;0.20;;
28946;SDS011;16052;50.930;5.326;2023-02-28T00:50:07;0.20;;;0.20;;
28946;SDS011;16052;50.930;5.326;2023-02-28T00:52:33;0.20;;;0.20;;
28946;SDS011;16052;50.930;5.326;2023-02-28T00:54:59;0.20;;;0.20;;
28946;SDS011;16052;50.930;5.326;2023-02-28T00:57:25;0.20;;;0.20;;
28946;SDS011;16052;50.930;5.326;2023-02-28T00:59:51;0.20;;;0.20;;
28946;SDS011;16052;50.930;5.326;2023-02-28T01:02:19;0.20;;;0.20;;
28946;SDS011;16052;50.930;5.326;2023-02-28T01:04:45;0.20;;;0.20;;
28946;SDS011;16052;50.930;5.326;2023-02-28T01:07:11;0.25;;;0.25;;
28946;SDS011;16052;50.930;5.326;2023-02-28T01:09:37;0.30;;;0.30;;
28946;SDS011;16052;50.930;5.326;2023-02-28T01:12:02;0.22;;;0.22;;
28946;SDS011;16052;50.930;5.326;2023-02-28T01:14:28;0.25;;;0.25;;
28946;SDS011;16052;50.930;5.326;2023-02-28T01:16:54;0.30;;;0.30;;
28946;SDS011;16052;50.930;5.326;2023-02-28T01:19:20;0.30;;;0.30;;
28946;SDS011;16052;50.930;5.326;2023-02-28T01:21:45;0.20;;;0.20;;
28946;SDS011;16052;50.930;5.326;2023-02-28T01:24:11;0.20;;;0.20;;
28946;SDS011;16052;50.930;5.326;2023-02-28T01:26:37;0.20;;;0.20;;
28946;SDS011;16052;50.930;5.326;2023-02-28T01:29:02;0.20;;;0.20;;
28946;SDS011;16052;50.930;5.326;2023-02-28T01:31:28;0.20;;;0.20;;
28946;SDS011;16052;50.930;5.326;2023-02-28T01:33:53;0.20;;;0.20;;
28946;SDS011;16052;50.930;5.326;2023-02-28T01:36:20;0.20;;;0.20;;
28946;SDS011;16052;50.930;5.326;2023-02-28T01:38:48;0.22;;;0.22;;
28946;SDS011;16052;50.930;5.326;2023-02-28T01:41:19;0.20;;;0.20;;
28946;SDS011;16052;50.930;5.326;2023-02-28T01:46:12;0.20;;;0.20;;
28946;SDS011;16052;50.930;5.326;2023-02-28T01:48:42;0.20;;;0.20;;
28946;SDS011;16052;50.930;5.326;2023-02-28T01:51:39;0.20;;;0.20;;
28946;SDS011;16052;50.930;5.326;2023-02-28T01:54:12;0.20;;;0.20;;
28946;SDS011;16052;50.930;5.326;2023-02-28T01:56:49;0.20;;;0.20;;
28946;SDS011;16052;50.930;5.326;2023-02-28T01:59:26;0.20;;;0.20;;
28946;SDS011;16052;50.930;5.326;2023-02-28T02:02:03;0.20;;;0.20;;
28946;SDS011;16052;50.930;5.326;2023-02-28T02:04:32;0.20;;;0.20;;
28946;SDS011;16052;50.930;5.326;2023-02-28T02:07:03;0.22;;;0.22;;
28946;SDS011;16052;50.930;5.326;2023-02-28T02:09:29;0.20;;;0.20;;
28946;SDS011;16052;50.930;5.326;2023-02-28T02:11:55;0.20;;;0.20;;
28946;SDS011;16052;50.930;5.326;2023-02-28T02:17:28;0.20;;;0.20;;
28946;SDS011;16052;50.930;5.326;2023-02-28T02:25:36;0.20;;;0.20;;
28946;SDS011;16052;50.930;5.326;2023-02-28T02:31:29;0.20;;;0.20;;
28946;SDS011;16052;50.930;5.326;2023-02-28T02:34:27;0.20;;;0.20;;
28946;SDS011;16052;50.930;5.326;2023-02-28T02:40:04;0.20;;;0.20;;
28946;SDS011;16052;50.930;5.326;2023-02-28T02:43:02;0.30;;;0.30;;
28946;SDS011;16052;50.930;5.326;2023-02-28T02:45:45;0.28;;;0.28;;
28946;SDS011;16052;50.930;5.326;2023-02-28T02:48:11;0.20;;;0.20;;
28946;SDS011;16052;50.930;5.326;2023-02-28T02:50:44;0.22;;;0.22;;
28946;SDS011;16052;50.930;5.326;2023-02-28T02:53:14;0.30;;;0.30;;
28946;SDS011;16052;50.930;5.326;2023-02-28T02:58:16;0.20;;;0.20;;
28946;SDS011;16052;50.930;5.326;2023-02-28T03:00:46;0.20;;;0.20;;
28946;SDS011;16052;50.930;5.326;2023-02-28T03:03:15;0.30;;;0.30;;
28946;SDS011;16052;50.930;5.326;2023-02-28T03:05:46;0.30;;;0.30;;
28946;SDS011;16052;50.930;5.326;2023-02-28T03:08:12;0.30;;;0.30;;
28946;SDS011;16052;50.930;5.326;2023-02-28T03:10:41;0.20;;;0.20;;
28946;SDS011;16052;50.930;5.326;2023-02-28T03:25:04;0.20;;;0.20;;
28946;SDS011;16052;50.930;5.326;2023-02-28T03:33:12;0.20;;;0.20;;
28946;SDS011;16052;50.930;5.326;2023-02-28T03:35:43;0.22;;;0.22;;
28946;SDS011;16052;50.930;5.326;2023-02-28T03:38:19;0.20;;;0.20;;
28946;SDS011;16052;50.930;5.326;2023-02-28T03:41:01;0.20;;;0.20;;
28946;SDS011;16052;50.930;5.326;2023-02-28T03:43:53;0.22;;;0.22;;
28946;SDS011;16052;50.930;5.326;2023-02-28T03:46:32;0.20;;;0.20;;
28946;SDS011;16052;50.930;5.326;2023-02-28T03:49:08;0.20;;;0.20;;
28946;SDS011;16052;50.930;5.326;2023-02-28T03:51:43;0.15;;;0.15;;
28946;SDS011;16052;50.930;5.326;2023-02-28T03:54:13;0.20;;;0.20;;
28946;SDS011;16052;50.930;5.326;2023-02-28T03:56:56;0.20;;;0.20;;
28946;SDS011;16052;50.930;5.326;2023-02-28T03:59:47;0.20;;;0.20;;
28946;SDS011;16052;50.930;5.326;2023-02-28T04:02:17;0.30;;;0.30;;
28946;SDS011;16052;50.930;5.326;2023-02-28T04:04:43;0.22;;;0.22;;
28946;SDS011;16052;50.930;5.326;2023-02-28T04:07:10;0.30;;;0.30;;
28946;SDS011;16052;50.930;5.326;2023-02-28T04:09:36;0.20;;;0.20;;
28946;SDS011;16052;50.930;5.326;2023-02-28T04:12:02;0.20;;;0.20;;
28946;SDS011;16052;50.930;5.326;2023-02-28T04:14:28;0.20;;;0.20;;
28946;SDS011;16052;50.930;5.326;2023-02-28T04:16:54;0.20;;;0.20;;
28946;SDS011;16052;50.930;5.326;2023-02-28T04:19:19;0.30;;;0.30;;
28946;SDS011;16052;50.930;5.326;2023-02-28T04:21:49;0.22;;;0.22;;
28946;SDS011;16052;50.930;5.326;2023-02-28T04:24:17;0.30;;;0.30;;
28946;SDS011;16052;50.930;5.326;2023-02-28T04:26:47;0.20;;;0.20;;
28946;SDS011;16052;50.930;5.326;2023-02-28T04:29:19;0.20;;;0.20;;
28946;SDS011;16052;50.930;5.326;2023-02-28T04:31:46;0.20;;;0.20;;
28946;SDS011;16052;50.930;5.326;2023-02-28T04:34:12;0.20;;;0.20;;
28946;SDS011;16052;50.930;5.326;2023-02-28T04:36:38;0.40;;;0.40;;
28946;SDS011;16052;50.930;5.326;2023-02-28T04:39:04;0.30;;;0.30;;
28946;SDS011;16052;50.930;5.326;2023-02-28T04:41:30;0.22;;;0.22;;
28946;SDS011;16052;50.930;5.326;2023-02-28T04:43:55;0.30;;;0.30;;
28946;SDS011;16052;50.930;5.326;2023-02-28T04:46:21;0.20;;;0.20;;
28946;SDS011;16052;50.930;5.326;2023-02-28T04:48:47;0.28;;;0.28;;
28946;SDS011;16052;50.930;5.326;2023-02-28T04:51:17;0.30;;;0.30;;
28946;SDS011;16052;50.930;5.326;2023-02-28T04:53:44;0.25;;;0.25;;
28946;SDS011;16052;50.930;5.326;2023-02-28T04:56:11;0.20;;;0.20;;
28946;SDS011;16052;50.930;5.326;2023-02-28T04:58:38;0.20;;;0.20;;
28946;SDS011;16052;50.930;5.326;2023-02-28T05:04:02;0.20;;;0.20;;
28946;SDS011;16052;50.930;5.326;2023-02-28T05:06:29;0.20;;;0.20;;
28946;SDS011;16052;50.930;5.326;2023-02-28T05:08:56;0.30;;;0.30;;
28946;SDS011;16052;50.930;5.326;2023-02-28T05:11:26;0.20;;;0.20;;
28946;SDS011;16052;50.930;5.326;2023-02-28T05:14:00;0.30;;;0.30;;
28946;SDS011;16052;50.930;5.326;2023-02-28T05:16:29;0.28;;;0.28;;
28946;SDS011;16052;50.930;5.326;2023-02-28T05:18:56;0.28;;;0.28;;
28946;SDS011;16052;50.930;5.326;2023-02-28T05:23:51;0.20;;;0.20;;
28946;SDS011;16052;50.930;5.326;2023-02-28T05:26:18;0.20;;;0.20;;
28946;SDS011;16052;50.930;5.326;2023-02-28T05:28:44;0.20;;;0.20;;
28946;SDS011;16052;50.930;5.326;2023-02-28T05:31:10;0.20;;;0.20;;
28946;SDS011;16052;50.930;5.326;2023-02-28T05:33:36;0.20;;;0.20;;
28946;SDS011;16052;50.930;5.326;2023-02-28T05:36:02;0.20;;;0.20;;
28946;SDS011;16052;50.930;5.326;2023-02-28T05:38:28;0.20;;;0.20;;
28946;SDS011;16052;50.930;5.326;2023-02-28T05:40:53;0.20;;;0.20;;
28946;SDS011;16052;50.930;5.326;2023-02-28T05:43:19;0.22;;;0.22;;
28946;SDS011;16052;50.930;5.326;2023-02-28T05:45:45;0.28;;;0.28;;
28946;SDS011;16052;50.930;5.326;2023-02-28T05:48:11;0.20;;;0.20;;
28946;SDS011;16052;50.930;5.326;2023-02-28T05:50:37;0.20;;;0.20;;
28946;SDS011;16052;50.930;5.326;2023-02-28T05:53:02;0.30;;;0.30;;
28946;SDS011;16052;50.930;5.326;2023-02-28T05:55:28;0.20;;;0.20;;
28946;SDS011;16052;50.930;5.326;2023-02-28T05:57:54;0.20;;;0.20;;
28946;SDS011;16052;50.930;5.326;2023-02-28T06:00:20;0.20;;;0.20;;
28946;SDS011;16052;50.930;5.326;2023-02-28T06:02:46;0.20;;;0.20;;
28946;SDS011;16052;50.930;5.326;2023-02-28T06:05:14;0.20;;;0.20;;
28946;SDS011;16052;50.930;5.326;2023-02-28T06:07:41;0.30;;;0.30;;
28946;SDS011;16052;50.930;5.326;2023-02-28T06:10:08;0.20;;;0.20;;
28946;SDS011;16052;50.930;5.326;2023-02-28T06:12:35;0.22;;;0.22;;
28946;SDS011;16052;50.930;5.326;2023-02-28T06:15:00;0.30;;;0.30;;
28946;SDS011;16052;50.930;5.326;2023-02-28T06:17:26;0.20;;;0.20;;
28946;SDS011;16052;50.930;5.326;2023-02-28T06:19:52;0.28;;;0.28;;
28946;SDS011;16052;50.930;5.326;2023-02-28T06:22:17;0.28;;;0.28;;
28946;SDS011;16052;50.930;5.326;2023-02-28T06:24:43;0.20;;;0.20;;
28946;SDS011;16052;50.930;5.326;2023-02-28T06:27:08;0.25;;;0.25;;
28946;SDS011;16052;50.930;5.326;2023-02-28T06:29:34;0.30;;;0.30;;
28946;SDS011;16052;50.930;5.326;2023-02-28T06:32:01;0.30;;;0.30;;
28946;SDS011;16052;50.930;5.326;2023-02-28T06:34:26;0.30;;;0.30;;
28946;SDS011;16052;50.930;5.326;2023-02-28T06:36:54;0.30;;;0.30;;
28946;SDS011;16052;50.930;5.326;2023-02-28T06:39:20;0.30;;;0.30;;
28946;SDS011;16052;50.930;5.326;2023-02-28T06:41:46;0.30;;;0.30;;
28946;SDS011;16052;50.930;5.326;2023-02-28T06:44:14;0.30;;;0.30;;
28946;SDS011;16052;50.930;5.326;2023-02-28T06:46:41;0.32;;;0.32;;
28946;SDS011;16052;50.930;5.326;2023-02-28T06:49:08;0.30;;;0.30;;
28946;SDS011;16052;50.930;5.326;2023-02-28T06:51:35;0.30;;;0.30;;
28946;SDS011;16052;50.930;5.326;2023-02-28T06:54:02;0.30;;;0.30;;
28946;SDS011;16052;50.930;5.326;2023-02-28T06:56:29;0.20;;;0.20;;
28946;SDS011;16052;50.930;5.326;2023-02-28T06:58:54;0.30;;;0.30;;
28946;SDS011;16052;50.930;5.326;2023-02-28T07:01:21;0.20;;;0.20;;
28946;SDS011;16052;50.930;5.326;2023-02-28T07:03:49;0.20;;;0.20;;
28946;SDS011;16052;50.930;5.326;2023-02-28T07:06:17;0.20;;;0.20;;
28946;SDS011;16052;50.930;5.326;2023-02-28T07:08:44;0.20;;;0.20;;
28946;SDS011;16052;50.930;5.326;2023-02-28T07:11:09;0.28;;;0.28;;
28946;SDS011;16052;50.930;5.326;2023-02-28T07:13:35;0.25;;;0.25;;
28946;SDS011;16052;50.930;5.326;2023-02-28T07:16:03;0.30;;;0.30;;
28946;SDS011;16052;50.930;5.326;2023-02-28T07:18:31;0.30;;;0.30;;
28946;SDS011;16052;50.930;5.326;2023-02-28T07:21:03;0.20;;;0.20;;
28946;SDS011;16052;50.930;5.326;2023-02-28T07:23:30;0.25;;;0.25;;
28946;SDS011;16052;50.930;5.326;2023-02-28T07:25:59;0.22;;;0.22;;
28946;SDS011;16052;50.930;5.326;2023-02-28T07:28:25;0.30;;;0.30;;
28946;SDS011;16052;50.930;5.326;2023-02-28T07:30:50;0.30;;;0.30;;
28946;SDS011;16052;50.930;5.326;2023-02-28T07:33:17;0.35;;;0.35;;
28946;SDS011;16052;50.930;5.326;2023-02-28T07:35:45;0.30;;;0.30;;
28946;SDS011;16052;50.930;5.326;2023-02-28T07:41:48;0.20;;;0.20;;
28946;SDS011;16052;50.930;5.326;2023-02-28T07:44:14;0.20;;;0.20;;
28946;SDS011;16052;50.930;5.326;2023-02-28T07:46:40;0.30;;;0.30;;
28946;SDS011;16052;50.930;5.326;2023-02-28T07:49:06;0.20;;;0.20;;
28946;SDS011;16052;50.930;5.326;2023-02-28T07:51:32;0.30;;;0.30;;
28946;SDS011;16052;50.930;5.326;2023-02-28T07:53:58;0.30;;;0.30;;
28946;SDS011;16052;50.930;5.326;2023-02-28T07:56:23;0.30;;;0.30;;
28946;SDS011;16052;50.930;5.326;2023-02-28T07:58:49;0.30;;;0.30;;
28946;SDS011;16052;50.930;5.326;2023-02-28T08:01:15;0.30;;;0.30;;
28946;SDS011;16052;50.930;5.326;2023-02-28T08:03:40;0.28;;;0.28;;
28946;SDS011;16052;50.930;5.326;2023-02-28T08:06:07;0.30;;;0.30;;
28946;SDS011;16052;50.930;5.326;2023-02-28T08:08:39;0.20;;;0.20;;
28946;SDS011;16052;50.930;5.326;2023-02-28T08:11:05;0.20;;;0.20;;
28946;SDS011;16052;50.930;5.326;2023-02-28T08:13:31;0.20;;;0.20;;
28946;SDS011;16052;50.930;5.326;2023-02-28T08:15:57;0.20;;;0.20;;
28946;SDS011;16052;50.930;5.326;2023-02-28T08:18:23;0.30;;;0.30;;
28946;SDS011;16052;50.930;5.326;2023-02-28T08:20:49;0.20;;;0.20;;
28946;SDS011;16052;50.930;5.326;2023-02-28T08:23:14;0.30;;;0.30;;
28946;SDS011;16052;50.930;5.326;2023-02-28T08:25:40;0.20;;;0.20;;
28946;SDS011;16052;50.930;5.326;2023-02-28T08:28:06;0.20;;;0.20;;
28946;SDS011;16052;50.930;5.326;2023-02-28T08:30:31;0.20;;;0.20;;
28946;SDS011;16052;50.930;5.326;2023-02-28T08:32:57;0.20;;;0.20;;
28946;SDS011;16052;50.930;5.326;2023-02-28T08:35:23;0.25;;;0.25;;
28946;SDS011;16052;50.930;5.326;2023-02-28T08:37:49;0.20;;;0.20;;
28946;SDS011;16052;50.930;5.326;2023-02-28T08:40:15;0.20;;;0.20;;
28946;SDS011;16052;50.930;5.326;2023-02-28T08:42:47;0.20;;;0.20;;
28946;SDS011;16052;50.930;5.326;2023-02-28T08:45:14;0.13;;;0.13;;
28946;SDS011;16052;50.930;5.326;2023-02-28T08:47:40;0.20;;;0.20;;
28946;SDS011;16052;50.930;5.326;2023-02-28T08:50:06;0.20;;;0.20;;
28946;SDS011;16052;50.930;5.326;2023-02-28T08:52:32;0.20;;;0.20;;
28946;SDS011;16052;50.930;5.326;2023-02-28T08:54:58;0.22;;;0.22;;
28946;SDS011;16052;50.930;5.326;2023-02-28T08:57:24;0.20;;;0.20;;
28946;SDS011;16052;50.930;5.326;2023-02-28T08:59:51;0.20;;;0.20;;
28946;SDS011;16052;50.930;5.326;2023-02-28T09:02:17;0.20;;;0.20;;
28946;SDS011;16052;50.930;5.326;2023-02-28T09:04:43;0.20;;;0.20;;
28946;SDS011;16052;50.930;5.326;2023-02-28T09:07:10;0.20;;;0.20;;
28946;SDS011;16052;50.930;5.326;2023-02-28T09:09:36;0.20;;;0.20;;
28946;SDS011;16052;50.930;5.326;2023-02-28T09:12:02;0.10;;;0.10;;
28946;SDS011;16052;50.930;5.326;2023-02-28T09:14:28;0.15;;;0.15;;
28946;SDS011;16052;50.930;5.326;2023-02-28T09:16:54;0.20;;;0.20;;
28946;SDS011;16052;50.930;5.326;2023-02-28T09:19:20;0.10;;;0.10;;
28946;SDS011;16052;50.930;5.326;2023-02-28T09:21:47;0.15;;;0.15;;
28946;SDS011;16052;50.930;5.326;2023-02-28T09:24:12;0.20;;;0.20;;
28946;SDS011;16052;50.930;5.326;2023-02-28T09:26:40;0.10;;;0.10;;
28946;SDS011;16052;50.930;5.326;2023-02-28T09:29:06;0.10;;;0.10;;
28946;SDS011;16052;50.930;5.326;2023-02-28T09:31:31;0.20;;;0.20;;
28946;SDS011;16052;50.930;5.326;2023-02-28T09:33:57;0.20;;;0.20;;
28946;SDS011;16052;50.930;5.326;2023-02-28T09:36:24;0.10;;;0.10;;
28946;SDS011;16052;50.930;5.326;2023-02-28T09:38:51;0.20;;;0.20;;
28946;SDS011;16052;50.930;5.326;2023-02-28T09:43:57;0.20;;;0.20;;
28946;SDS011;16052;50.930;5.326;2023-02-28T09:46:35;0.20;;;0.20;;
28946;SDS011;16052;50.930;5.326;2023-02-28T09:49:03;0.20;;;0.20;;
28946;SDS011;16052;50.930;5.326;2023-02-28T09:51:44;0.20;;;0.20;;
28946;SDS011;16052;50.930;5.326;2023-02-28T09:54:17;0.20;;;0.20;;
28946;SDS011;16052;50.930;5.326;2023-02-28T09:56:45;0.10;;;0.10;;
28946;SDS011;16052;50.930;5.326;2023-02-28T09:59:39;0.10;;;0.10;;
28946;SDS011;16052;50.930;5.326;2023-02-28T10:06:04;0.20;;;0.20;;
28946;SDS011;16052;50.930;5.326;2023-02-28T10:08:35;0.20;;;0.20;;
28946;SDS011;16052;50.930;5.326;2023-02-28T10:11:07;0.10;;;0.10;;
28946;SDS011;16052;50.930;5.326;2023-02-28T10:13:45;0.10;;;0.10;;
28946;SDS011;16052;50.930;5.326;2023-02-28T10:19:10;0.20;;;0.20;;
28946;SDS011;16052;50.930;5.326;2023-02-28T10:21:43;0.10;;;0.10;;
28946;SDS011;16052;50.930;5.326;2023-02-28T10:26:53;0.15;;;0.15;;
28946;SDS011;16052;50.930;5.326;2023-02-28T10:29:25;0.10;;;0.10;;
28946;SDS011;16052;50.930;5.326;2023-02-28T10:31:52;0.20;;;0.20;;
28946;SDS011;16052;50.930;5.326;2023-02-28T10:34:17;0.10;;;0.10;;
28946;SDS011;16052;50.930;5.326;2023-02-28T10:36:43;0.10;;;0.10;;
28946;SDS011;16052;50.930;5.326;2023-02-28T10:42:02;0.13;;;0.13;;
28946;SDS011;16052;50.930;5.326;2023-02-28T10:44:28;0.20;;;0.20;;
28946;SDS011;16052;50.930;5.326;2023-02-28T10:46:54;0.20;;;0.20;;
28946;SDS011;16052;50.930;5.326;2023-02-28T10:49:22;0.10;;;0.10;;
28946;SDS011;16052;50.930;5.326;2023-02-28T10:51:53;0.10;;;0.10;;
28946;SDS011;16052;50.930;5.326;2023-02-28T10:54:23;0.15;;;0.15;;
28946;SDS011;16052;50.930;5.326;2023-02-28T10:59:41;0.10;;;0.10;;
28946;SDS011;16052;50.930;5.326;2023-02-28T11:05:26;0.17;;;0.17;;
28946;SDS011;16052;50.930;5.326;2023-02-28T11:08:03;0.20;;;0.20;;
28946;SDS011;16052;50.930;5.326;2023-02-28T11:10:32;0.20;;;0.20;;
28946;SDS011;16052;50.930;5.326;2023-02-28T11:13:01;0.10;;;0.10;;
28946;SDS011;16052;50.930;5.326;2023-02-28T11:15:29;0.20;;;0.20;;
28946;SDS011;16052;50.930;5.326;2023-02-28T11:20:32;0.20;;;0.20;;
28946;SDS011;16052;50.930;5.326;2023-02-28T11:22:59;0.17;;;0.17;;
28946;SDS011;16052;50.930;5.326;2023-02-28T11:25:33;0.20;;;0.20;;
28946;SDS011;16052;50.930;5.326;2023-02-28T11:28:02;0.10;;;0.10;;
28946;SDS011;16052;50.930;5.326;2023-02-28T11:33:00;0.20;;;0.20;;
28946;SDS011;16052;50.930;5.326;2023-02-28T11:35:41;0.10;;;0.10;;
28946;SDS011;16052;50.930;5.326;2023-02-28T11:38:13;0.20;;;0.20;;
28946;SDS011;16052;50.930;5.326;2023-02-28T11:40:50;0.10;;;0.10;;
28946;SDS011;16052;50.930;5.326;2023-02-28T11:43:32;0.10;;;0.10;;
28946;SDS011;16052;50.930;5.326;2023-02-28T11:46:18;0.10;;;0.10;;
28946;SDS011;16052;50.930;5.326;2023-02-28T11:54:35;0.10;;;0.10;;
28946;SDS011;16052;50.930;5.326;2023-02-28T12:02:30;0.10;;;0.10;;
28946;SDS011;16052;50.930;5.326;2023-02-28T12:05:17;0.10;;;0.10;;
28946;SDS011;16052;50.930;5.326;2023-02-28T12:11:00;0.10;;;0.10;;
28946;SDS011;16052;50.930;5.326;2023-02-28T12:21:52;0.10;;;0.10;;
28946;SDS011;16052;50.930;5.326;2023-02-28T12:24:36;0.10;;;0.10;;
28946;SDS011;16052;50.930;5.326;2023-02-28T12:27:16;0.10;;;0.10;;
28946;SDS011;16052;50.930;5.326;2023-02-28T12:29:48;0.10;;;0.10;;
28946;SDS011;16052;50.930;5.326;2023-02-28T12:32:26;0.10;;;0.10;;
28946;SDS011;16052;50.930;5.326;2023-02-28T12:37:39;0.10;;;0.10;;
28946;SDS011;16052;50.930;5.326;2023-02-28T12:40:20;0.10;;;0.10;;
28946;SDS011;16052;50.930;5.326;2023-02-28T12:45:39;0.10;;;0.10;;
28946;SDS011;16052;50.930;5.326;2023-02-28T12:51:06;0.10;;;0.10;;
28946;SDS011;16052;50.930;5.326;2023-02-28T12:56:33;0.10;;;0.10;;
28946;SDS011;16052;50.930;5.326;2023-02-28T13:09:57;0.10;;;0.10;;
28946;SDS011;16052;50.930;5.326;2023-02-28T13:12:24;0.10;;;0.10;;
28946;SDS011;16052;50.930;5.326;2023-02-28T13:14:51;0.10;;;0.10;;
28946;SDS011;16052;50.930;5.326;2023-02-28T13:17:37;0.10;;;0.10;;
28946;SDS011;16052;50.930;5.326;2023-02-28T13:20:17;0.10;;;0.10;;
28946;SDS011;16052;50.930;5.326;2023-02-28T13:22:49;0.10;;;0.10;;
28946;SDS011;16052;50.930;5.326;2023-02-28T13:27:54;0.10;;;0.10;;
28946;SDS011;16052;50.930;5.326;2023-02-28T13:36:09;0.10;;;0.10;;
28946;SDS011;16052;50.930;5.326;2023-02-28T13:49:30;0.10;;;0.10;;
28946;SDS011;16052;50.930;5.326;2023-02-28T14:05:51;0.10;;;0.10;;
28946;SDS011;16052;50.930;5.326;2023-02-28T14:08:49;0.10;;;0.10;;
28946;SDS011;16052;50.930;5.326;2023-02-28T14:11:39;0.10;;;0.10;;
28946;SDS011;16052;50.930;5.326;2023-02-28T14:14:07;0.10;;;0.10;;
28946;SDS011;16052;50.930;5.326;2023-02-28T14:16:44;0.10;;;0.10;;
28946;SDS011;16052;50.930;5.326;2023-02-28T14:19:15;0.10;;;0.10;;
28946;SDS011;16052;50.930;5.326;2023-02-28T14:25:03;0.10;;;0.10;;
28946;SDS011;16052;50.930;5.326;2023-02-28T14:36:03;0.10;;;0.10;;
28946;SDS011;16052;50.930;5.326;2023-02-28T14:38:31;0.10;;;0.10;;
28946;SDS011;16052;50.930;5.326;2023-02-28T14:41:03;0.10;;;0.10;;
28946;SDS011;16052;50.930;5.326;2023-02-28T14:43:37;0.10;;;0.10;;
28946;SDS011;16052;50.930;5.326;2023-02-28T14:46:23;0.10;;;0.10;;
28946;SDS011;16052;50.930;5.326;2023-02-28T14:48:53;0.10;;;0.10;;
28946;SDS011;16052;50.930;5.326;2023-02-28T14:51:20;0.10;;;0.10;;
28946;SDS011;16052;50.930;5.326;2023-02-28T14:53:48;0.10;;;0.10;;
28946;SDS011;16052;50.930;5.326;2023-02-28T14:56:21;0.10;;;0.10;;
28946;SDS011;16052;50.930;5.326;2023-02-28T14:58:53;0.10;;;0.10;;
28946;SDS011;16052;50.930;5.326;2023-02-28T15:01:21;0.10;;;0.10;;
28946;SDS011;16052;50.930;5.326;2023-02-28T15:03:48;0.10;;;0.10;;
28946;SDS011;16052;50.930;5.326;2023-02-28T15:06:21;0.10;;;0.10;;
28946;SDS011;16052;50.930;5.326;2023-02-28T15:09:01;0.10;;;0.10;;
28946;SDS011;16052;50.930;5.326;2023-02-28T15:11:32;0.10;;;0.10;;
28946;SDS011;16052;50.930;5.326;2023-02-28T15:13:58;0.10;;;0.10;;
28946;SDS011;16052;50.930;5.326;2023-02-28T15:16:26;0.10;;;0.10;;
28946;SDS011;16052;50.930;5.326;2023-02-28T15:19:00;0.10;;;0.10;;
28946;SDS011;16052;50.930;5.326;2023-02-28T15:21:32;0.10;;;0.10;;
28946;SDS011;16052;50.930;5.326;2023-02-28T15:24:05;0.10;;;0.10;;
28946;SDS011;16052;50.930;5.326;2023-02-28T15:26:39;0.10;;;0.10;;
28946;SDS011;16052;50.930;5.326;2023-02-28T15:29:11;0.10;;;0.10;;
28946;SDS011;16052;50.930;5.326;2023-02-28T15:31:48;0.10;;;0.10;;
28946;SDS011;16052;50.930;5.326;2023-02-28T15:40:10;0.10;;;0.10;;
28946;SDS011;16052;50.930;5.326;2023-02-28T15:42:39;0.10;;;0.10;;
28946;SDS011;16052;50.930;5.326;2023-02-28T15:45:05;0.10;;;0.10;;
28946;SDS011;16052;50.930;5.326;2023-02-28T15:47:31;0.10;;;0.10;;
28946;SDS011;16052;50.930;5.326;2023-02-28T15:50:02;0.17;;;0.17;;
28946;SDS011;16052;50.930;5.326;2023-02-28T15:52:38;0.10;;;0.10;;
28946;SDS011;16052;50.930;5.326;2023-02-28T15:57:38;0.10;;;0.10;;
28946;SDS011;16052;50.930;5.326;2023-02-28T16:00:06;0.10;;;0.10;;
28946;SDS011;16052;50.930;5.326;2023-02-28T16:02:38;0.10;;;0.10;;
28946;SDS011;16052;50.930;5.326;2023-02-28T16:07:40;0.10;;;0.10;;
28946;SDS011;16052;50.930;5.326;2023-02-28T16:10:08;0.10;;;0.10;;
28946;SDS011;16052;50.930;5.326;2023-02-28T16:12:36;0.10;;;0.10;;
28946;SDS011;16052;50.930;5.326;2023-02-28T16:17:53;0.10;;;0.10;;
28946;SDS011;16052;50.930;5.326;2023-02-28T16:20:21;0.10;;;0.10;;
28946;SDS011;16052;50.930;5.326;2023-02-28T16:22:49;0.10;;;0.10;;
28946;SDS011;16052;50.930;5.326;2023-02-28T16:25:16;0.10;;;0.10;;
28946;SDS011;16052;50.930;5.326;2023-02-28T16:27:44;0.10;;;0.10;;
28946;SDS011;16052;50.930;5.326;2023-02-28T16:30:21;0.10;;;0.10;;
28946;SDS011;16052;50.930;5.326;2023-02-28T16:32:50;0.10;;;0.10;;
28946;SDS011;16052;50.930;5.326;2023-02-28T16:35:16;0.10;;;0.10;;
28946;SDS011;16052;50.930;5.326;2023-02-28T16:37:42;0.10;;;0.10;;
28946;SDS011;16052;50.930;5.326;2023-02-28T16:40:13;0.10;;;0.10;;
28946;SDS011;16052;50.930;5.326;2023-02-28T16:42:49;0.10;;;0.10;;
28946;SDS011;16052;50.930;5.326;2023-02-28T16:47:45;0.10;;;0.10;;
28946;SDS011;16052;50.930;5.326;2023-02-28T16:50:18;0.10;;;0.10;;
28946;SDS011;16052;50.930;5.326;2023-02-28T16:52:45;0.10;;;0.10;;
28946;SDS011;16052;50.930;5.326;2023-02-28T16:55:11;0.10;;;0.10;;
28946;SDS011;16052;50.930;5.326;2023-02-28T16:57:37;0.10;;;0.10;;
28946;SDS011;16052;50.930;5.326;2023-02-28T17:00:05;0.10;;;0.10;;
28946;SDS011;16052;50.930;5.326;2023-02-28T17:02:33;0.10;;;0.10;;
28946;SDS011;16052;50.930;5.326;2023-02-28T17:04:59;0.10;;;0.10;;
28946;SDS011;16052;50.930;5.326;2023-02-28T17:07:25;0.10;;;0.10;;
28946;SDS011;16052;50.930;5.326;2023-02-28T17:09:50;0.10;;;0.10;;
28946;SDS011;16052;50.930;5.326;2023-02-28T17:12:16;0.10;;;0.10;;
28946;SDS011;16052;50.930;5.326;2023-02-28T17:14:41;0.10;;;0.10;;
28946;SDS011;16052;50.930;5.326;2023-02-28T17:17:09;0.10;;;0.10;;
28946;SDS011;16052;50.930;5.326;2023-02-28T17:19:41;0.10;;;0.10;;
28946;SDS011;16052;50.930;5.326;2023-02-28T17:22:08;0.10;;;0.10;;
28946;SDS011;16052;50.930;5.326;2023-02-28T17:24:35;0.10;;;0.10;;
28946;SDS011;16052;50.930;5.326;2023-02-28T17:27:01;0.10;;;0.10;;
28946;SDS011;16052;50.930;5.326;2023-02-28T17:29:27;0.10;;;0.10;;
28946;SDS011;16052;50.930;5.326;2023-02-28T17:31:52;0.10;;;0.10;;
28946;SDS011;16052;50.930;5.326;2023-02-28T17:34:18;0.10;;;0.10;;
28946;SDS011;16052;50.930;5.326;2023-02-28T17:36:45;0.10;;;0.10;;
28946;SDS011;16052;50.930;5.326;2023-02-28T17:39:13;0.10;;;0.10;;
28946;SDS011;16052;50.930;5.326;2023-02-28T17:41:40;0.10;;;0.10;;
28946;SDS011;16052;50.930;5.326;2023-02-28T17:44:07;0.10;;;0.10;;
28946;SDS011;16052;50.930;5.326;2023-02-28T17:46:34;0.10;;;0.10;;
28946;SDS011;16052;50.930;5.326;2023-02-28T17:49:00;0.10;;;0.10;;
28946;SDS011;16052;50.930;5.326;2023-02-28T17:51:26;0.20;;;0.20;;
28946;SDS011;16052;50.930;5.326;2023-02-28T17:53:52;0.10;;;0.10;;
28946;SDS011;16052;50.930;5.326;2023-02-28T17:56:19;0.10;;;0.10;;
28946;SDS011;16052;50.930;5.326;2023-02-28T17:58:48;0.13;;;0.13;;